Time;durP1;ratioP1;P1;durP2;ratioP2;P2;SDS_P1;SDS_P2;PMS_P1;PMS_P2;Temp;Humidity;BMP_temperature;BMP_pressure;BME280_temperature;BME280_humidity;BME280_pressure;Samples;Min_cycle;Max_cycle;Signal;HPM_P1;HPM_P2
2022/06/22 00:02:04;;;;;;;11.23;7.57;;;11.70;99.90;;;;;;5096194;27;20043;-89
2022/06/22 00:04:56;;;;;;;12.55;7.22;;;11.50;99.90;;;;;;5112336;27;20043;-90
2022/06/22 00:07:26;;;;;;;12.32;8.38;;;11.50;99.90;;;;;;5129619;27;20107;-90
2022/06/22 00:09:58;;;;;;;12.02;8.18;;;11.50;99.90;;;;;;5113085;27;20039;-89
2022/06/22 00:12:30;;;;;;;9.95;7.85;;;11.40;99.90;;;;;;5129113;27;20051;-90
2022/06/22 00:14:59;;;;;;;10.02;7.45;;;11.50;99.90;;;;;;5112822;27;20070;-89
2022/06/22 00:17:35;;;;;;;11.18;7.05;;;11.40;99.90;;;;;;5112223;27;20038;-89
2022/06/22 00:20:25;;;;;;;9.25;7.70;;;11.30;99.90;;;;;;5134157;27;20043;-89
2022/06/22 00:22:57;;;;;;;10.35;7.07;;;11.30;99.90;;;;;;5131483;27;20418;-89
2022/06/22 00:25:35;;;;;;;6.47;5.17;;;11.30;99.90;;;;;;5128710;27;20045;-90
2022/06/22 00:28:29;;;;;;;11.45;6.93;;;11.20;99.90;;;;;;5111851;27;20047;-87
2022/06/22 00:31:14;;;;;;;;;;;11.20;99.90;;;;;;5112418;27;20486;-88
2022/06/22 00:34:00;;;;;;;13.20;6.65;;;11.20;99.90;;;;;;5111859;27;20008;-89
2022/06/22 00:36:32;;;;;;;8.73;6.28;;;11.10;99.90;;;;;;5095886;27;20359;-89
2022/06/22 00:39:26;;;;;;;9.45;6.25;;;11.10;99.90;;;;;;5115774;27;20044;-89
2022/06/22 00:41:56;;;;;;;8.48;6.07;;;11.10;99.90;;;;;;5133548;27;20066;-89
2022/06/22 00:44:27;;;;;;;10.45;6.65;;;11.10;99.90;;;;;;5132120;27;20049;-89
2022/06/22 00:47:02;;;;;;;10.00;5.95;;;11.00;99.90;;;;;;5115461;27;20051;-90
2022/06/22 00:49:28;;;;;;;8.77;7.03;;;11.00;99.90;;;;;;5133286;27;20035;-89
2022/06/22 00:52:00;;;;;;;10.75;6.95;;;10.90;99.90;;;;;;5130421;27;20047;-88
2022/06/22 00:54:28;;;;;;;8.63;6.68;;;10.90;99.90;;;;;;5114024;27;20046;-89
2022/06/22 00:57:11;;;;;;;8.73;6.75;;;10.90;99.90;;;;;;5115541;27;20035;-89
2022/06/22 00:59:48;;;;;;;6.32;4.18;;;10.90;99.90;;;;;;5133474;27;20096;-89
2022/06/22 01:02:26;;;;;;;9.30;6.32;;;10.80;99.90;;;;;;5132580;27;20078;-89
2022/06/22 01:04:52;;;;;;;8.13;6.10;;;10.80;99.90;;;;;;5131803;27;20126;-89
2022/06/22 01:08:01;;;;;;;8.77;5.65;;;11.10;99.90;;;;;;5131115;27;20124;-89
2022/06/22 01:10:43;;;;;;;11.02;5.82;;;10.70;99.90;;;;;;5128997;27;20054;-88
2022/06/22 01:13:17;;;;;;;8.32;6.22;;;10.70;99.90;;;;;;5129498;27;20066;-89
2022/06/22 01:16:14;;;;;;;6.75;5.85;;;11.80;99.90;;;;;;5111745;27;20068;-89
2022/06/22 01:18:46;;;;;;;19.95;6.00;;;10.60;99.90;;;;;;5108557;27;20051;-88
2022/06/22 01:21:35;;;;;;;9.02;5.82;;;10.60;99.90;;;;;;5128678;27;20046;-89
2022/06/22 01:24:25;;;;;;;11.18;6.32;;;10.60;99.90;;;;;;5110700;27;20055;-88
2022/06/22 01:27:15;;;;;;;8.15;6.15;;;10.60;99.90;;;;;;5127358;27;20051;-88
2022/06/22 01:30:03;;;;;;;8.73;6.40;;;10.50;99.90;;;;;;5109476;27;20047;-88
2022/06/22 01:32:35;;;;;;;10.73;6.93;;;10.50;99.90;;;;;;5128042;27;20051;-89
2022/06/22 01:35:12;;;;;;;8.43;6.18;;;11.20;99.90;;;;;;5110236;27;20055;-88
2022/06/22 01:37:39;;;;;;;11.88;6.30;;;10.50;99.90;;;;;;5112658;27;20070;-89
2022/06/22 01:40:18;;;;;;;8.02;5.97;;;11.20;99.90;;;;;;5095095;27;20130;-88
2022/06/22 01:42:59;;;;;;;7.20;5.95;;;10.40;99.90;;;;;;5130360;27;20047;-89
2022/06/22 01:45:37;;;;;;;11.50;6.65;;;10.40;99.90;;;;;;5117460;27;20066;-90
2022/06/22 01:48:11;;;;;;;8.75;6.28;;;10.30;99.90;;;;;;5134187;27;20062;-89
2022/06/22 01:50:51;;;;;;;8.00;5.80;;;10.30;99.90;;;;;;5115856;27;20516;-89
2022/06/22 01:53:32;;;;;;;7.95;6.53;;;10.20;99.90;;;;;;5117720;28;20043;-90
2022/06/22 01:56:13;;;;;;;12.15;7.32;;;10.20;99.90;;;;;;5117961;28;20496;-90
2022/06/22 01:59:10;;;;;;;9.80;5.70;;;10.10;99.90;;;;;;5115724;28;20498;-90
2022/06/22 02:01:52;;;;;;;8.13;5.18;;;10.10;99.90;;;;;;5113966;28;20042;-90
2022/06/22 02:04:43;;;;;;;7.53;6.00;;;10.10;99.90;;;;;;5116733;28;20214;-89
2022/06/22 02:07:45;;;;;;;7.57;5.80;;;10.10;99.90;;;;;;5113429;28;20062;-90
2022/06/22 02:10:23;;;;;;;7.72;6.72;;;10.10;99.90;;;;;;5116164;28;20082;-90
2022/06/22 02:13:04;;;;;;;10.43;6.70;;;10.00;99.90;;;;;;5115766;28;20129;-89
2022/06/22 02:15:39;;;;;;;10.45;7.28;;;10.00;99.90;;;;;;5116088;28;20035;-89
2022/06/22 02:18:20;;;;;;;14.70;7.60;;;10.00;99.90;;;;;;5116157;28;20043;-90
2022/06/22 02:20:46;;;;;;;7.95;6.55;;;9.90;99.90;;;;;;5115032;28;20035;-91
2022/06/22 02:23:33;;;;;;;10.55;6.13;;;10.00;99.90;;;;;;5114087;28;20047;-90
2022/06/22 02:26:07;;;;;;;7.65;5.57;;;10.80;99.90;;;;;;5115923;28;20047;-90
2022/06/22 02:28:33;;;;;;;11.35;7.20;;;9.90;99.90;;;;;;5115145;28;20044;-90
2022/06/22 02:31:00;;;;;;;10.18;5.70;;;9.90;99.90;;;;;;5114013;28;20058;-90
2022/06/22 02:33:27;;;;;;;9.52;6.50;;;9.90;99.90;;;;;;5098825;28;20053;-90
2022/06/22 02:35:55;;;;;;;11.82;8.52;;;11.20;99.90;;;;;;5103791;28;20031;-90
2022/06/22 02:38:21;;;;;;;9.02;6.40;;;10.20;99.90;;;;;;5116973;28;20078;-90
2022/06/22 02:46:21;;;;;;;11.40;7.32;;;9.80;99.90;;;;;;5119178;27;20080;-90
2022/06/22 02:48:57;;;;;;;14.90;7.10;;;9.80;99.90;;;;;;5099285;27;20081;-90
2022/06/22 02:51:28;;;;;;;10.80;6.97;;;9.80;99.90;;;;;;5115229;27;20040;-89
2022/06/22 02:53:57;;;;;;;12.10;7.55;;;9.80;99.90;;;;;;5116983;27;20523;-89
2022/06/22 02:56:31;;;;;;;12.93;7.20;;;10.00;99.90;;;;;;5120657;27;20051;-88
2022/06/22 02:58:57;;;;;;;12.52;8.52;;;9.80;99.90;;;;;;5124558;27;20135;-89
2022/06/22 03:01:26;;;;;;;10.32;7.55;;;9.90;99.90;;;;;;5127490;27;20046;-89
2022/06/22 03:04:12;;;;;;;9.35;6.85;;;10.80;99.90;;;;;;5121530;27;20039;-89
2022/06/22 03:06:44;;;;;;;14.75;6.93;;;9.80;99.90;;;;;;5120631;27;20038;-89
2022/06/22 03:09:10;;;;;;;17.00;7.22;;;9.90;99.90;;;;;;5120233;27;20043;-89
2022/06/22 03:11:39;;;;;;;8.38;6.45;;;9.90;99.90;;;;;;5121150;27;20127;-90
2022/06/22 03:14:17;;;;;;;10.82;7.78;;;9.90;99.90;;;;;;5120854;27;20050;-90
2022/06/22 03:16:47;;;;;;;9.00;6.53;;;9.80;99.90;;;;;;5119116;27;20045;-89
2022/06/22 03:19:21;;;;;;;13.48;6.82;;;9.90;99.90;;;;;;5136407;27;20512;-89
2022/06/22 03:21:48;;;;;;;9.40;7.40;;;10.20;99.90;;;;;;5119761;27;20053;-89
2022/06/22 03:24:29;;;;;;;11.90;7.00;;;9.80;99.90;;;;;;5085894;27;20126;-89
2022/06/22 03:27:01;;;;;;;7.38;6.13;;;9.80;99.90;;;;;;5136441;27;20039;-87
2022/06/22 03:29:30;;;;;;;8.60;6.32;;;9.90;99.90;;;;;;5136038;27;20078;-88
2022/06/22 03:31:59;;;;;;;9.48;7.28;;;9.90;99.90;;;;;;5118779;27;20047;-89
2022/06/22 03:34:33;;;;;;;13.35;7.10;;;9.90;99.90;;;;;;5135685;27;20043;-89
2022/06/22 03:37:10;;;;;;;11.63;7.88;;;9.90;99.90;;;;;;5119125;27;20051;-89
2022/06/22 03:39:41;;;;;;;14.48;7.60;;;10.00;99.90;;;;;;5118903;27;20039;-89
2022/06/22 03:42:17;;;;;;;10.18;6.72;;;10.10;99.90;;;;;;5118567;27;20078;-89
2022/06/22 03:44:53;;;;;;;10.00;7.30;;;10.00;99.90;;;;;;5118362;27;20043;-88
2022/06/22 03:47:55;;;;;;;11.30;7.68;;;10.00;99.90;;;;;;5118151;27;20051;-88
2022/06/22 03:50:32;;;;;;;10.10;7.95;;;10.10;99.90;;;;;;5067544;27;20119;-89
2022/06/22 03:53:24;;;;;;;9.75;7.70;;;10.10;99.90;;;;;;5120004;27;20039;-89
2022/06/22 03:55:54;;;;;;;10.45;7.82;;;10.10;99.90;;;;;;5097745;27;20055;-89
2022/06/22 03:58:22;;;;;;;14.60;8.32;;;10.20;99.90;;;;;;5116248;27;20042;-89
2022/06/22 04:00:48;;;;;;;9.65;7.43;;;10.20;99.90;;;;;;5116482;27;20039;-89
2022/06/22 04:03:17;;;;;;;9.55;7.22;;;10.20;99.90;;;;;;5132870;27;20550;-88
2022/06/22 04:05:51;;;;;;;13.07;7.30;;;10.30;99.90;;;;;;5116384;27;20133;-88
2022/06/22 04:08:24;;;;;;;9.95;6.95;;;10.30;99.90;;;;;;5115793;27;20043;-88
2022/06/22 04:11:14;;;;;;;10.20;7.50;;;11.10;99.90;;;;;;5130081;27;20055;-86
2022/06/22 04:13:49;;;;;;;8.60;6.35;;;10.40;99.90;;;;;;5129843;27;20043;-86
2022/06/22 04:16:22;;;;;;;12.85;7.88;;;10.50;99.90;;;;;;5129146;27;20074;-86
2022/06/22 04:18:56;;;;;;;14.02;6.65;;;11.10;99.90;;;;;;5112264;27;20466;-86
2022/06/22 04:21:33;;;;;;;9.10;6.35;;;10.70;99.90;;;;;;5128879;27;20047;-85
2022/06/22 04:24:11;;;;;;;12.25;6.60;;;10.70;99.90;;;;;;5129073;27;20421;-87
2022/06/22 04:26:55;;;;;;;8.48;6.18;;;10.80;99.90;;;;;;5131061;27;20131;-87
2022/06/22 04:29:35;;;;;;;11.50;7.72;;;10.90;99.90;;;;;;5112696;27;20051;-86
2022/06/22 04:32:29;;;;;;;11.15;6.38;;;11.00;99.90;;;;;;5113385;27;20132;-87
2022/06/22 04:35:27;;;;;;;12.02;6.63;;;11.10;99.90;;;;;;5126123;27;20159;-86
2022/06/22 04:38:05;;;;;;;10.80;6.60;;;11.20;99.90;;;;;;5131411;27;20039;-87
2022/06/22 04:40:34;;;;;;;8.88;6.70;;;11.20;99.90;;;;;;5128604;27;20047;-87
2022/06/22 04:43:03;;;;;;;9.68;6.65;;;11.30;99.90;;;;;;5128762;27;20039;-87
2022/06/22 04:45:38;;;;;;;8.68;6.10;;;11.40;99.90;;;;;;5111361;27;20051;-86
2022/06/22 04:48:13;;;;;;;10.68;6.80;;;11.50;99.90;;;;;;5129114;27;20429;-87
2022/06/22 04:50:41;;;;;;;8.65;6.13;;;11.60;99.90;;;;;;5131040;27;20391;-87
2022/06/22 04:53:18;;;;;;;9.43;6.15;;;12.60;99.90;;;;;;5132962;27;20494;-85
2022/06/22 04:55:44;;;;;;;9.98;6.28;;;11.80;99.90;;;;;;5115391;27;20047;-86
2022/06/22 04:58:22;;;;;;;10.48;6.70;;;12.50;99.90;;;;;;5116413;27;20046;-86
2022/06/22 05:00:48;;;;;;;10.93;7.35;;;11.90;99.90;;;;;;5136573;27;20043;-87
2022/06/22 05:03:14;;;;;;;10.73;6.40;;;13.20;99.90;;;;;;5127317;27;20047;-89
2022/06/22 05:05:40;;;;;;;7.93;6.07;;;12.10;99.90;;;;;;5152998;27;20087;-86
2022/06/22 05:08:21;;;;;;;10.82;6.55;;;12.20;99.90;;;;;;5152279;27;20429;-89
2022/06/22 05:10:49;;;;;;;9.25;6.70;;;12.30;99.90;;;;;;5149896;27;20108;-87
2022/06/22 05:13:20;;;;;;;11.45;6.32;;;12.40;99.90;;;;;;5145068;27;20046;-87
2022/06/22 05:15:49;;;;;;;10.90;6.43;;;12.80;99.90;;;;;;5140807;27;20042;-87
2022/06/22 05:18:24;;;;;;;9.80;6.60;;;12.60;99.90;;;;;;5135314;27;20042;-87
2022/06/22 05:21:11;;;;;;;10.20;6.38;;;12.80;99.90;;;;;;5138693;27;20038;-88
2022/06/22 05:23:38;;;;;;;12.70;7.10;;;12.90;99.90;;;;;;5130286;27;20047;-87
2022/06/22 05:26:09;;;;;;;10.30;6.85;;;13.00;99.90;;;;;;5128491;27;20036;-87
2022/06/22 05:29:06;;;;;;;11.48;5.95;;;13.10;99.90;;;;;;5110914;27;20051;-86
2022/06/22 05:31:36;;;;;;;7.75;5.18;;;13.30;99.90;;;;;;5112794;27;20047;-86
2022/06/22 05:34:16;;;;;;;7.40;4.88;;;13.70;99.90;;;;;;5128850;27;20035;-85
2022/06/22 05:36:46;;;;;;;9.95;5.93;;;13.50;99.90;;;;;;5129342;27;20047;-87
2022/06/22 05:39:12;;;;;;;8.95;5.00;;;13.60;99.90;;;;;;5110993;27;20047;-86
2022/06/22 05:41:42;;;;;;;8.85;5.22;;;14.10;99.90;;;;;;5110883;27;20107;-83
2022/06/22 05:44:11;;;;;;;6.72;5.78;;;13.80;99.90;;;;;;5128155;27;20068;-85
2022/06/22 05:46:45;;;;;;;10.93;5.50;;;14.00;99.90;;;;;;5127552;27;20146;-91
2022/06/22 05:49:16;;;;;;;9.10;5.60;;;14.10;99.90;;;;;;5128383;27;20039;-94
2022/06/22 05:52:00;;;;;;;10.77;6.10;;;14.10;99.90;;;;;;5111598;27;20058;-92
2022/06/22 05:55:07;;;;;;;7.60;5.05;;;14.20;99.90;;;;;;5128821;27;20502;-93
2022/06/22 05:57:45;;;;;;;9.90;5.70;;;14.20;99.90;;;;;;5127542;27;20122;-89
2022/06/22 06:00:27;;;;;;;9.57;5.78;;;14.40;99.90;;;;;;5111634;28;20043;-89
2022/06/22 06:02:56;;;;;;;10.48;7.13;;;14.50;99.90;;;;;;5130145;27;20075;-91
2022/06/22 06:05:35;;;;;;;8.63;5.50;;;14.70;99.90;;;;;;5129810;28;20110;-92
2022/06/22 06:08:07;;;;;;;7.65;5.60;;;14.70;99.90;;;;;;5130719;27;20126;-92
2022/06/22 06:10:42;;;;;;;11.60;6.70;;;14.80;99.90;;;;;;5136970;28;20050;-91
2022/06/22 06:13:23;;;;;;;11.02;6.40;;;14.90;99.90;;;;;;5150349;28;20082;-91
2022/06/22 06:15:54;;;;;;;10.80;6.47;;;15.10;99.90;;;;;;5157101;27;20031;-92
2022/06/22 06:18:26;;;;;;;12.77;5.90;;;15.10;99.90;;;;;;5140219;27;20035;-91
2022/06/22 06:21:19;;;;;;;14.02;7.28;;;15.20;99.90;;;;;;5135923;27;20039;-91
2022/06/22 06:24:00;;;;;;;9.55;5.88;;;15.30;99.90;;;;;;5118156;27;20055;-92
2022/06/22 06:29:43;;;;;;;7.93;5.93;;;15.60;99.90;;;;;;5140045;27;20095;-91
2022/06/22 06:32:54;;;;;;;10.20;4.68;;;15.90;99.90;;;;;;5120067;27;20047;-91
2022/06/22 06:35:23;;;;;;;10.82;3.80;;;15.90;99.90;;;;;;5102210;27;20053;-91
2022/06/22 06:38:11;;;;;;;4.95;2.95;;;16.10;99.90;;;;;;5114953;27;20054;-91
2022/06/22 06:41:07;;;;;;;6.60;3.53;;;16.30;99.90;;;;;;5115091;27;20560;-91
2022/06/22 06:43:38;;;;;;;6.47;3.33;;;16.40;99.90;;;;;;5116458;27;20071;-91
2022/06/22 06:46:14;;;;;;;8.75;4.18;;;16.50;99.90;;;;;;5117242;27;20054;-91
2022/06/22 06:48:44;;;;;;;8.35;3.90;;;16.70;99.90;;;;;;5115803;27;20043;-91
2022/06/22 06:51:14;;;;;;;12.68;4.82;;;16.80;99.90;;;;;;5114341;27;20035;-90
2022/06/22 06:53:43;;;;;;;6.22;3.83;;;16.90;99.90;;;;;;5114489;27;20039;-90
2022/06/22 06:56:24;;;;;;;6.43;4.32;;;17.10;99.90;;;;;;5114138;27;20043;-90
2022/06/22 06:58:53;;;;;;;5.20;3.70;;;17.20;99.90;;;;;;5114038;27;20047;-91
2022/06/22 07:01:22;;;;;;;6.75;3.50;;;17.30;99.90;;;;;;5114153;27;20085;-90
2022/06/22 07:03:52;;;;;;;7.28;4.47;;;17.40;99.90;;;;;;5113780;27;20039;-90
2022/06/22 07:06:19;;;;;;;7.85;3.08;;;17.50;99.90;;;;;;5113767;27;20043;-91
2022/06/22 07:09:18;;;;;;;7.75;3.70;;;17.60;99.90;;;;;;5114089;27;20066;-90
2022/06/22 07:11:51;;;;;;;7.25;3.55;;;17.70;99.90;;;;;;5113452;27;20433;-90
2022/06/22 07:14:37;;;;;;;6.15;3.15;;;17.80;99.90;;;;;;5113637;27;20042;-89
2022/06/22 07:17:11;;;;;;;6.80;3.05;;;17.90;99.90;;;;;;5113446;27;20040;-90
2022/06/22 07:19:52;;;;;;;7.00;3.30;;;18.00;99.90;;;;;;5113557;27;20050;-89
2022/06/22 07:22:32;;;;;;;7.03;3.35;;;18.10;99.90;;;;;;5130926;27;20525;-90
2022/06/22 07:25:25;;;;;;;7.18;3.38;;;18.20;99.90;;;;;;5112952;27;20582;-91
2022/06/22 07:28:12;;;;;;;6.88;1.85;;;18.20;99.90;;;;;;5112589;27;20075;-89
2022/06/22 07:30:44;;;;;;;9.32;3.17;;;18.30;99.90;;;;;;5130429;27;20043;-89
2022/06/22 07:33:18;;;;;;;5.80;2.95;;;18.40;99.90;;;;;;5113559;27;20035;-90
2022/06/22 07:35:52;;;;;;;6.32;2.75;;;18.40;99.90;;;;;;5113191;27;20121;-90
2022/06/22 07:38:36;;;;;;;15.00;4.13;;;18.50;99.90;;;;;;5112562;27;20427;-90
2022/06/22 07:41:22;;;;;;;9.82;3.75;;;18.60;99.90;;;;;;5113289;27;20415;-90
2022/06/22 07:44:04;;;;;;;7.60;3.30;;;18.70;99.90;;;;;;5099276;27;20410;-90
2022/06/22 07:46:42;;;;;;;4.63;2.53;;;18.70;99.90;;;;;;5130929;27;20061;-90
2022/06/22 07:49:26;;;;;;;10.07;3.63;;;18.80;99.90;;;;;;5112593;27;20126;-90
2022/06/22 07:51:55;;;;;;;4.88;2.88;;;18.80;99.90;;;;;;5113320;27;20043;-90
2022/06/22 07:54:37;;;;;;;5.28;2.33;;;18.90;99.90;;;;;;5112406;27;20062;-90
2022/06/22 07:57:17;;;;;;;3.05;1.73;;;19.00;99.90;;;;;;5113085;27;20463;-90
2022/06/22 07:59:53;;;;;;;7.30;2.28;;;19.20;99.90;;;;;;5112373;27;20521;-90
2022/06/22 08:02:23;;;;;;;5.90;2.08;;;19.40;99.90;;;;;;5113162;27;20129;-90
2022/06/22 08:05:14;;;;;;;3.85;1.90;;;19.50;99.90;;;;;;5112922;27;20039;-90
2022/06/22 08:07:50;;;;;;;6.65;2.72;;;19.70;99.90;;;;;;5099739;27;20051;-90
2022/06/22 08:10:19;;;;;;;4.13;2.50;;;20.10;99.90;;;;;;5112305;27;20054;-90
2022/06/22 08:12:51;;;;;;;5.35;2.60;;;19.90;99.90;;;;;;5113205;27;20073;-90
2022/06/22 08:15:20;;;;;;;8.07;2.37;;;20.00;99.90;;;;;;5116116;27;20163;-90
2022/06/22 08:17:50;;;;;;;5.30;2.53;;;20.10;99.90;;;;;;5116654;27;20043;-89
2022/06/22 08:20:21;;;;;;;9.50;2.92;;;20.30;99.90;;;;;;5119295;27;20076;-89
2022/06/22 08:22:49;;;;;;;8.82;2.88;;;20.50;99.90;;;;;;5114227;27;20080;-90
2022/06/22 08:25:18;;;;;;;4.57;2.40;;;20.50;99.90;;;;;;5112250;27;20486;-91
2022/06/22 08:27:44;;;;;;;8.43;2.95;;;20.70;99.90;;;;;;5112818;27;20475;-90
2022/06/22 08:30:12;;;;;;;6.97;3.85;;;20.70;99.90;;;;;;5112747;27;20099;-91
2022/06/22 08:32:53;;;;;;;8.68;3.60;;;20.70;99.90;;;;;;5113288;27;20088;-91
2022/06/22 08:35:25;;;;;;;6.60;3.20;;;20.80;99.90;;;;;;5130243;27;20139;-91
2022/06/22 08:38:09;;;;;;;7.18;3.45;;;20.90;99.90;;;;;;5112569;27;20051;-91
2022/06/22 08:40:43;;;;;;;10.27;3.75;;;21.00;99.90;;;;;;5112110;27;20046;-90
2022/06/22 08:43:44;;;;;;;7.32;3.42;;;21.10;99.90;;;;;;5113128;27;20141;-92
2022/06/22 08:46:39;;;;;;;6.95;3.33;;;21.20;99.90;;;;;;5113033;27;20450;-91
2022/06/22 08:49:23;;;;;;;6.78;3.10;;;21.20;99.90;;;;;;5112211;27;20050;-91
2022/06/22 08:52:26;;;;;;;7.97;3.38;;;21.40;99.90;;;;;;5112564;27;20046;-91
2022/06/22 08:55:04;;;;;;;7.20;3.00;;;21.50;99.90;;;;;;5112389;27;20046;-91
2022/06/22 08:58:01;;;;;;;8.13;3.30;;;21.60;99.90;;;;;;5128685;27;20079;-91
2022/06/22 09:00:54;;;;;;;10.38;3.67;;;21.70;99.90;;;;;;5114315;27;20073;-91
2022/06/22 09:03:56;;;;;;;6.72;3.20;;;21.80;99.90;;;;;;5113462;27;20073;-91
2022/06/22 09:06:51;;;;;;;6.18;3.08;;;21.90;99.90;;;;;;5112391;27;20421;-91
2022/06/22 09:09:38;;;;;;;6.93;3.20;;;21.90;99.90;;;;;;5112834;27;20047;-91
2022/06/22 09:12:25;;;;;;;6.57;3.15;;;21.90;99.90;;;;;;5112664;27;20127;-91
2022/06/22 09:14:59;;;;;;;4.68;2.80;;;22.00;99.90;;;;;;5112658;27;20088;-91
2022/06/22 09:17:44;;;;;;;6.97;2.97;;;22.10;99.90;;;;;;5112320;27;20039;-91
2022/06/22 09:20:34;;;;;;;5.82;2.55;;;22.20;99.90;;;;;;5111837;27;20050;-91
2022/06/22 09:23:15;;;;;;;7.25;2.55;;;22.30;99.90;;;;;;5114666;27;20379;-91
2022/06/22 09:26:04;;;;;;;3.83;2.03;;;22.40;99.90;;;;;;5129160;27;20489;-91
2022/06/22 09:28:58;;;;;;;5.85;2.55;;;22.50;99.90;;;;;;5110851;27;20043;-91
2022/06/22 09:31:42;;;;;;;5.85;2.35;;;22.60;99.90;;;;;;5111270;27;20482;-91
2022/06/22 09:34:29;;;;;;;5.22;2.50;;;22.60;99.90;;;;;;5110954;27;20043;-91
2022/06/22 09:37:10;;;;;;;5.55;2.22;;;22.70;99.90;;;;;;5111346;27;20470;-91
2022/06/22 09:39:49;;;;;;;4.03;2.22;;;22.70;99.90;;;;;;5111682;27;20082;-90
2022/06/22 09:42:50;;;;;;;5.43;2.20;;;22.80;99.90;;;;;;5110686;27;20042;-91
2022/06/22 09:45:34;;;;;;;4.45;1.98;;;22.80;98.90;;;;;;5110496;27;20142;-91
2022/06/22 09:48:03;;;;;;;10.95;2.22;;;22.90;99.90;;;;;;5111382;27;20475;-91
2022/06/22 09:50:49;;;;;;;5.75;2.47;;;23.00;99.20;;;;;;5109830;27;20082;-90
2022/06/22 09:53:36;;;;;;;4.25;2.08;;;23.10;97.20;;;;;;5110537;27;20043;-91
2022/06/22 09:56:20;;;;;;;5.88;2.63;;;23.10;96.40;;;;;;5110797;27;20051;-90
2022/06/22 09:59:12;;;;;;;4.68;2.60;;;23.20;97.60;;;;;;5110814;27;20490;-91
2022/06/22 10:01:44;;;;;;;;;;;23.30;97.00;;;;;;5111593;27;20061;-91
2022/06/22 10:04:32;;;;;;;6.47;3.05;;;23.30;92.30;;;;;;5111498;28;20291;-91
2022/06/22 10:07:06;;;;;;;9.13;2.80;;;23.40;98.50;;;;;;5127938;28;20069;-91
2022/06/22 10:09:53;;;;;;;6.32;2.75;;;23.40;99.70;;;;;;5111062;28;20071;-91
2022/06/22 10:12:53;;;;;;;4.43;2.80;;;23.30;97.80;;;;;;5110989;28;20047;-91
2022/06/22 10:15:41;;;;;;;7.00;3.22;;;23.20;98.50;;;;;;5112368;28;20073;-91
2022/06/22 10:18:32;;;;;;;10.55;3.90;;;23.20;98.90;;;;;;5140206;28;20047;-92
2022/06/22 10:21:18;;;;;;;7.13;3.00;;;23.20;98.50;;;;;;5133914;28;20051;-91
2022/06/22 10:24:02;;;;;;;7.65;3.30;;;23.10;98.10;;;;;;5128563;28;20043;-91
2022/06/22 10:26:49;;;;;;;6.15;2.75;;;22.90;98.80;;;;;;5111946;28;20078;-91
2022/06/22 10:29:49;;;;;;;6.70;3.00;;;22.80;98.10;;;;;;5111149;28;20401;-91
2022/06/22 10:32:33;;;;;;;5.22;2.25;;;22.80;98.10;;;;;;5110747;28;20050;-91
2022/06/22 10:35:24;;;;;;;5.68;3.08;;;22.90;99.30;;;;;;5131318;28;20107;-91
2022/06/22 10:38:15;;;;;;;6.97;3.28;;;23.10;97.50;;;;;;5112513;28;20052;-90
2022/06/22 10:47:07;;;;;;;8.95;3.13;;;23.50;98.10;;;;;;5129053;28;20055;-90
2022/06/22 10:50:02;;;;;;;6.00;2.40;;;23.60;99.00;;;;;;5112911;28;20047;-89
2022/06/22 10:52:40;;;;;;;4.07;2.00;;;23.70;98.00;;;;;;5095125;28;20053;-89
2022/06/22 10:55:40;;;;;;;6.25;2.83;;;23.90;98.10;;;;;;5113563;28;20044;-88
2022/06/22 10:58:32;;;;;;;5.20;2.47;;;24.00;96.90;;;;;;5114302;28;20398;-88
2022/06/22 11:01:04;;;;;;;5.40;2.38;;;24.20;95.60;;;;;;5134359;27;20058;-89
2022/06/22 11:03:51;;;;;;;9.77;2.63;;;24.40;95.50;;;;;;5116484;27;20057;-89
2022/06/22 11:06:44;;;;;;;5.00;1.83;;;24.50;95.40;;;;;;5116608;27;20180;-89
2022/06/22 11:09:19;;;;;;;7.93;2.38;;;24.70;93.00;;;;;;5119847;27;20427;-88
2022/06/22 11:11:52;;;;;;;5.00;1.98;;;24.70;93.20;;;;;;5117643;27;20086;-89
2022/06/22 11:14:37;;;;;;;5.80;2.38;;;24.80;94.70;;;;;;5116320;27;20055;-90
2022/06/22 11:17:19;;;;;;;7.43;2.75;;;24.70;93.50;;;;;;5133387;27;20107;-89
2022/06/22 11:20:04;;;;;;;5.13;2.20;;;24.40;91.30;;;;;;5114780;27;20043;-90
2022/06/22 11:22:40;;;;;;;4.80;2.40;;;24.20;91.30;;;;;;5133030;27;20046;-90
2022/06/22 11:25:08;;;;;;;5.40;2.65;;;24.00;93.30;;;;;;5114823;27;20043;-89
2022/06/22 11:30:56;;;;;;;4.57;2.38;;;24.00;94.20;;;;;;5132803;27;20051;-90
2022/06/22 11:33:34;;;;;;;5.00;2.03;;;24.20;92.00;;;;;;5115059;27;20055;-89
2022/06/22 11:36:21;;;;;;;3.63;1.88;;;24.40;87.80;;;;;;5115432;27;20054;-90
2022/06/22 11:39:10;;;;;;;7.65;2.40;;;24.50;93.70;;;;;;5120502;27;20096;-90
2022/06/22 11:41:54;;;;;;;6.93;3.40;;;24.60;91.00;;;;;;5110072;27;20049;-91
2022/06/22 11:48:04;;;;;;;5.85;2.78;;;24.90;91.90;;;;;;5131300;27;20051;-89
2022/06/22 11:50:41;;;;;;;8.77;2.83;;;25.00;92.50;;;;;;5136765;27;20043;-90
2022/06/22 11:53:27;;;;;;;7.47;3.10;;;25.10;92.40;;;;;;5118545;27;20546;-90
2022/06/22 11:56:03;;;;;;;4.18;2.38;;;25.20;93.40;;;;;;5135905;27;20055;-90
2022/06/22 11:59:03;;;;;;;4.55;2.17;;;25.30;91.20;;;;;;5135918;27;20076;-90
2022/06/22 12:01:38;;;;;;;6.55;2.33;;;25.50;91.60;;;;;;5135253;27;20238;-91
2022/06/22 12:04:39;;;;;;;6.28;2.40;;;25.70;90.70;;;;;;5136233;27;20047;-90
2022/06/22 12:07:37;;;;;;;6.78;1.90;;;25.80;87.30;;;;;;5078967;27;20051;-90
2022/06/22 12:10:17;;;;;;;6.05;2.58;;;25.70;90.60;;;;;;5134273;27;20108;-91
2022/06/22 12:12:56;;;;;;;3.58;1.73;;;25.60;87.80;;;;;;5134015;27;20046;-88
2022/06/22 12:15:43;;;;;;;5.75;2.40;;;25.40;88.10;;;;;;5136647;27;20047;-88
2022/06/22 12:18:36;;;;;;;5.28;2.47;;;25.30;89.10;;;;;;5143060;27;20078;-89
2022/06/22 12:21:37;;;;;;;5.20;2.08;;;25.40;90.10;;;;;;5119703;27;20058;-89
2022/06/22 12:24:21;;;;;;;5.95;2.50;;;25.60;87.20;;;;;;5135552;27;20103;-89
2022/06/22 12:27:28;;;;;;;5.57;2.55;;;25.80;85.10;;;;;;5117140;27;20055;-89
2022/06/22 12:30:33;;;;;;;7.32;2.10;;;25.70;83.00;;;;;;5118312;27;20039;-89
2022/06/22 12:33:13;;;;;;;5.43;2.38;;;25.80;87.10;;;;;;5116102;27;20078;-90
2022/06/22 12:35:58;;;;;;;6.55;2.78;;;25.80;88.40;;;;;;5134084;27;20038;-90
2022/06/22 12:38:39;;;;;;;4.95;1.90;;;25.90;90.20;;;;;;5116698;27;20047;-90
2022/06/22 12:41:11;;;;;;;6.32;2.22;;;25.90;82.90;;;;;;5116212;27;20433;-91
2022/06/22 12:43:36;;;;;;;4.40;1.95;;;26.00;82.70;;;;;;5117195;27;20078;-90
2022/06/22 12:46:18;;;;;;;6.20;2.65;;;26.00;82.10;;;;;;5135096;27;20055;-90
2022/06/22 12:49:01;;;;;;;6.10;2.20;;;26.10;80.30;;;;;;5116163;27;20039;-91
2022/06/22 12:51:51;;;;;;;6.05;2.03;;;26.00;78.40;;;;;;5117330;27;20129;-89
2022/06/22 12:54:26;;;;;;;3.63;2.10;;;26.00;80.50;;;;;;5115884;27;20035;-89
2022/06/22 12:57:01;;;;;;;7.13;2.42;;;26.10;79.80;;;;;;5115442;27;20038;-88
2022/06/22 12:59:45;;;;;;;9.35;2.10;;;26.30;79.40;;;;;;5116277;27;20143;-90
2022/06/22 13:02:17;;;;;;;4.80;1.85;;;26.50;78.60;;;;;;5114647;27;20085;-90
2022/06/22 13:04:46;;;;;;;4.18;1.70;;;26.70;77.60;;;;;;5115763;27;20031;-90
2022/06/22 13:07:19;;;;;;;6.70;2.70;;;26.90;75.90;;;;;;5117015;27;20058;-90
2022/06/22 13:09:45;;;;;;;;;;;27.00;73.30;;;;;;5100824;27;20043;-89
2022/06/22 13:12:25;;;;;;;6.10;2.45;;;27.10;75.10;;;;;;5133683;27;19920;-89
2022/06/22 13:15:07;;;;;;;3.97;2.05;;;27.10;73.60;;;;;;5114697;27;20039;-89
2022/06/22 13:17:57;;;;;;;7.85;2.35;;;27.20;68.90;;;;;;5115669;27;20039;-89
2022/06/22 13:20:44;;;;;;;9.38;2.47;;;27.20;69.30;;;;;;5115372;27;20055;-90
2022/06/22 13:23:27;;;;;;;5.68;2.40;;;27.10;69.00;;;;;;5114832;27;20115;-90
2022/06/22 13:25:59;;;;;;;6.43;2.70;;;27.20;71.80;;;;;;5116805;27;20133;-89
2022/06/22 13:29:04;;;;;;;11.63;3.70;;;27.30;70.80;;;;;;5117352;27;20402;-90
2022/06/22 13:31:36;;;;;;;7.80;4.28;;;27.40;72.80;;;;;;5116973;27;20304;-90
2022/06/22 13:34:09;;;;;;;7.70;3.67;;;27.10;75.20;;;;;;5117414;27;20031;-90
2022/06/22 13:36:34;;;;;;;6.22;3.80;;;26.80;75.70;;;;;;5121289;27;20051;-90
2022/06/22 13:39:29;;;;;;;4.93;3.08;;;26.60;78.90;;;;;;5117739;27;20043;-90
2022/06/22 13:42:17;;;;;;;8.68;3.17;;;26.50;81.70;;;;;;5067481;27;20185;-90
2022/06/22 13:44:52;;;;;;;7.28;3.95;;;26.40;83.40;;;;;;5116326;27;20048;-90
2022/06/22 13:48:06;;;;;;;9.95;3.58;;;26.40;84.60;;;;;;5132831;27;20059;-91
2022/06/22 13:53:53;;;;;;;9.75;3.70;;;26.50;87.60;;;;;;5131030;27;20089;-89
2022/06/22 13:56:54;;;;;;;7.03;3.53;;;26.50;88.30;;;;;;5118006;28;20047;-89
2022/06/22 13:59:44;;;;;;;9.82;3.17;;;26.40;88.00;;;;;;5129001;27;20047;-88
2022/06/22 14:02:29;;;;;;;6.20;2.80;;;26.40;89.80;;;;;;5134974;27;20047;-90
2022/06/22 14:05:01;;;;;;;7.70;3.40;;;26.50;87.00;;;;;;5123203;28;20054;-89
2022/06/22 14:07:41;;;;;;;5.60;2.72;;;26.60;85.60;;;;;;5119980;28;20047;-89
2022/06/22 14:10:07;;;;;;;7.82;3.17;;;26.60;88.90;;;;;;5115280;28;20054;-89
2022/06/22 14:12:46;;;;;;;5.43;2.60;;;26.60;86.90;;;;;;5111646;28;20092;-89
2022/06/22 14:15:57;;;;;;;9.88;2.90;;;26.40;86.40;;;;;;5133696;28;20494;-89